sensor_id;sensor_type;location;lat;lon;timestamp;P1;durP1;ratioP1;P2;durP2;ratioP2
34960;SDS011;30789;52.030;7.110;2023-05-13T00:00:41;0.00;;;0.00;;
34960;SDS011;30789;52.030;7.110;2023-05-13T00:03:07;0.17;;;0.17;;
34960;SDS011;30789;52.030;7.110;2023-05-13T00:05:34;0.20;;;0.20;;
34960;SDS011;30789;52.030;7.110;2023-05-13T00:08:00;0.00;;;0.00;;
34960;SDS011;30789;52.030;7.110;2023-05-13T00:10:32;0.00;;;0.00;;
34960;SDS011;30789;52.030;7.110;2023-05-13T00:12:59;0.00;;;0.00;;
34960;SDS011;30789;52.030;7.110;2023-05-13T00:15:25;0.00;;;0.00;;
34960;SDS011;30789;52.030;7.110;2023-05-13T00:17:53;0.08;;;0.05;;
34960;SDS011;30789;52.030;7.110;2023-05-13T00:20:19;0.00;;;0.00;;
34960;SDS011;30789;52.030;7.110;2023-05-13T00:22:46;0.35;;;0.35;;
34960;SDS011;30789;52.030;7.110;2023-05-13T00:25:12;0.00;;;0.00;;
34960;SDS011;30789;52.030;7.110;2023-05-13T00:27:40;0.00;;;0.00;;
34960;SDS011;30789;52.030;7.110;2023-05-13T00:30:07;0.00;;;0.00;;
34960;SDS011;30789;52.030;7.110;2023-05-13T00:32:35;0.00;;;0.00;;
34960;SDS011;30789;52.030;7.110;2023-05-13T00:35:01;0.00;;;0.00;;
34960;SDS011;30789;52.030;7.110;2023-05-13T00:37:28;0.20;;;0.20;;
34960;SDS011;30789;52.030;7.110;2023-05-13T00:39:54;0.10;;;0.10;;
34960;SDS011;30789;52.030;7.110;2023-05-13T00:42:21;0.25;;;0.25;;
34960;SDS011;30789;52.030;7.110;2023-05-13T00:44:49;0.57;;;0.57;;
34960;SDS011;30789;52.030;7.110;2023-05-13T00:47:16;0.45;;;0.45;;
34960;SDS011;30789;52.030;7.110;2023-05-13T00:49:43;0.63;;;0.50;;
34960;SDS011;30789;52.030;7.110;2023-05-13T00:52:10;0.20;;;0.20;;
34960;SDS011;30789;52.030;7.110;2023-05-13T00:54:37;0.00;;;0.00;;
34960;SDS011;30789;52.030;7.110;2023-05-13T00:57:03;0.52;;;0.52;;
34960;SDS011;30789;52.030;7.110;2023-05-13T00:59:30;0.00;;;0.00;;
34960;SDS011;30789;52.030;7.110;2023-05-13T01:02:01;0.00;;;0.00;;
34960;SDS011;30789;52.030;7.110;2023-05-13T01:04:35;0.00;;;0.00;;
34960;SDS011;30789;52.030;7.110;2023-05-13T01:07:08;0.05;;;0.05;;
34960;SDS011;30789;52.030;7.110;2023-05-13T01:09:45;0.25;;;0.20;;
34960;SDS011;30789;52.030;7.110;2023-05-13T01:12:20;0.10;;;0.10;;
34960;SDS011;30789;52.030;7.110;2023-05-13T01:14:51;0.55;;;0.55;;
34960;SDS011;30789;52.030;7.110;2023-05-13T01:17:26;0.43;;;0.43;;
34960;SDS011;30789;52.030;7.110;2023-05-13T01:20:01;0.00;;;0.00;;
34960;SDS011;30789;52.030;7.110;2023-05-13T01:22:30;0.43;;;0.43;;
34960;SDS011;30789;52.030;7.110;2023-05-13T01:24:57;0.38;;;0.38;;
34960;SDS011;30789;52.030;7.110;2023-05-13T01:27:23;0.08;;;0.08;;
34960;SDS011;30789;52.030;7.110;2023-05-13T01:29:51;0.00;;;0.00;;
34960;SDS011;30789;52.030;7.110;2023-05-13T01:32:19;0.10;;;0.10;;
34960;SDS011;30789;52.030;7.110;2023-05-13T01:34:47;0.17;;;0.17;;
34960;SDS011;30789;52.030;7.110;2023-05-13T01:37:16;0.00;;;0.00;;
34960;SDS011;30789;52.030;7.110;2023-05-13T01:39:45;0.00;;;0.00;;
34960;SDS011;30789;52.030;7.110;2023-05-13T01:42:12;0.45;;;0.45;;
34960;SDS011;30789;52.030;7.110;2023-05-13T01:44:39;0.50;;;0.50;;
34960;SDS011;30789;52.030;7.110;2023-05-13T01:47:05;0.10;;;0.10;;
34960;SDS011;30789;52.030;7.110;2023-05-13T01:49:32;0.00;;;0.00;;
34960;SDS011;30789;52.030;7.110;2023-05-13T01:51:58;0.00;;;0.00;;
34960;SDS011;30789;52.030;7.110;2023-05-13T01:54:25;1.30;;;1.30;;
34960;SDS011;30789;52.030;7.110;2023-05-13T01:56:52;0.00;;;0.00;;
34960;SDS011;30789;52.030;7.110;2023-05-13T01:59:19;0.32;;;0.32;;
34960;SDS011;30789;52.030;7.110;2023-05-13T02:01:45;0.00;;;0.00;;
34960;SDS011;30789;52.030;7.110;2023-05-13T02:04:12;0.00;;;0.00;;
34960;SDS011;30789;52.030;7.110;2023-05-13T02:06:38;0.20;;;0.20;;
34960;SDS011;30789;52.030;7.110;2023-05-13T02:09:05;0.20;;;0.20;;
34960;SDS011;30789;52.030;7.110;2023-05-13T02:11:32;0.00;;;0.00;;
34960;SDS011;30789;52.030;7.110;2023-05-13T02:14:01;1.02;;;1.00;;
34960;SDS011;30789;52.030;7.110;2023-05-13T02:16:27;0.00;;;0.00;;
34960;SDS011;30789;52.030;7.110;2023-05-13T02:18:54;0.05;;;0.05;;
34960;SDS011;30789;52.030;7.110;2023-05-13T02:21:20;0.00;;;0.00;;
34960;SDS011;30789;52.030;7.110;2023-05-13T02:23:47;0.00;;;0.00;;
34960;SDS011;30789;52.030;7.110;2023-05-13T02:26:13;0.00;;;0.00;;
34960;SDS011;30789;52.030;7.110;2023-05-13T02:28:40;0.68;;;0.68;;
34960;SDS011;30789;52.030;7.110;2023-05-13T02:31:07;0.10;;;0.10;;
34960;SDS011;30789;52.030;7.110;2023-05-13T02:33:34;0.00;;;0.00;;
34960;SDS011;30789;52.030;7.110;2023-05-13T02:36:00;0.00;;;0.00;;
34960;SDS011;30789;52.030;7.110;2023-05-13T02:38:27;0.38;;;0.25;;
34960;SDS011;30789;52.030;7.110;2023-05-13T02:40:53;0.00;;;0.00;;
34960;SDS011;30789;52.030;7.110;2023-05-13T02:43:20;0.00;;;0.00;;
34960;SDS011;30789;52.030;7.110;2023-05-13T02:45:48;0.00;;;0.00;;
34960;SDS011;30789;52.030;7.110;2023-05-13T02:48:17;0.28;;;0.28;;
34960;SDS011;30789;52.030;7.110;2023-05-13T02:50:43;2.00;;;0.50;;
34960;SDS011;30789;52.030;7.110;2023-05-13T02:53:10;0.63;;;0.63;;
34960;SDS011;30789;52.030;7.110;2023-05-13T02:55:36;1.85;;;0.47;;
34960;SDS011;30789;52.030;7.110;2023-05-13T02:58:03;0.05;;;0.05;;
34960;SDS011;30789;52.030;7.110;2023-05-13T03:00:30;0.00;;;0.00;;
34960;SDS011;30789;52.030;7.110;2023-05-13T03:02:56;0.25;;;0.25;;
34960;SDS011;30789;52.030;7.110;2023-05-13T03:05:24;0.15;;;0.15;;
34960;SDS011;30789;52.030;7.110;2023-05-13T03:07:51;0.00;;;0.00;;
34960;SDS011;30789;52.030;7.110;2023-05-13T03:10:17;0.52;;;0.52;;
34960;SDS011;30789;52.030;7.110;2023-05-13T03:12:44;0.20;;;0.20;;
34960;SDS011;30789;52.030;7.110;2023-05-13T03:15:10;0.45;;;0.45;;
34960;SDS011;30789;52.030;7.110;2023-05-13T03:17:37;0.00;;;0.00;;
34960;SDS011;30789;52.030;7.110;2023-05-13T03:20:04;0.00;;;0.00;;
34960;SDS011;30789;52.030;7.110;2023-05-13T03:22:33;0.75;;;0.75;;
34960;SDS011;30789;52.030;7.110;2023-05-13T03:24:59;0.75;;;0.75;;
34960;SDS011;30789;52.030;7.110;2023-05-13T03:27:26;0.13;;;0.13;;
34960;SDS011;30789;52.030;7.110;2023-05-13T03:29:52;0.20;;;0.20;;
34960;SDS011;30789;52.030;7.110;2023-05-13T03:32:18;0.35;;;0.35;;
34960;SDS011;30789;52.030;7.110;2023-05-13T03:34:46;1.17;;;1.17;;
34960;SDS011;30789;52.030;7.110;2023-05-13T03:37:13;0.30;;;0.30;;
34960;SDS011;30789;52.030;7.110;2023-05-13T03:39:41;0.00;;;0.00;;
34960;SDS011;30789;52.030;7.110;2023-05-13T03:42:08;1.20;;;1.17;;
34960;SDS011;30789;52.030;7.110;2023-05-13T03:44:34;1.95;;;0.80;;
34960;SDS011;30789;52.030;7.110;2023-05-13T03:47:01;0.00;;;0.00;;
34960;SDS011;30789;52.030;7.110;2023-05-13T03:49:27;0.00;;;0.00;;
34960;SDS011;30789;52.030;7.110;2023-05-13T03:51:54;0.17;;;0.17;;
34960;SDS011;30789;52.030;7.110;2023-05-13T03:54:20;0.47;;;0.47;;
34960;SDS011;30789;52.030;7.110;2023-05-13T03:56:48;0.00;;;0.00;;
34960;SDS011;30789;52.030;7.110;2023-05-13T03:59:14;0.00;;;0.00;;
34960;SDS011;30789;52.030;7.110;2023-05-13T04:01:41;0.63;;;0.63;;
34960;SDS011;30789;52.030;7.110;2023-05-13T04:04:07;0.20;;;0.20;;
34960;SDS011;30789;52.030;7.110;2023-05-13T04:06:34;1.15;;;1.15;;
34960;SDS011;30789;52.030;7.110;2023-05-13T04:09:00;0.00;;;0.00;;
34960;SDS011;30789;52.030;7.110;2023-05-13T04:11:28;0.00;;;0.00;;
34960;SDS011;30789;52.030;7.110;2023-05-13T04:13:56;2.47;;;0.88;;
34960;SDS011;30789;52.030;7.110;2023-05-13T04:16:23;0.22;;;0.22;;
34960;SDS011;30789;52.030;7.110;2023-05-13T04:18:50;0.00;;;0.00;;
34960;SDS011;30789;52.030;7.110;2023-05-13T04:21:16;0.00;;;0.00;;
34960;SDS011;30789;52.030;7.110;2023-05-13T04:23:43;0.00;;;0.00;;
34960;SDS011;30789;52.030;7.110;2023-05-13T04:26:09;0.00;;;0.00;;
34960;SDS011;30789;52.030;7.110;2023-05-13T04:28:36;0.00;;;0.00;;
34960;SDS011;30789;52.030;7.110;2023-05-13T04:31:04;0.00;;;0.00;;
34960;SDS011;30789;52.030;7.110;2023-05-13T04:33:30;0.05;;;0.05;;
34960;SDS011;30789;52.030;7.110;2023-05-13T04:35:57;0.22;;;0.22;;
34960;SDS011;30789;52.030;7.110;2023-05-13T04:38:24;0.00;;;0.00;;
34960;SDS011;30789;52.030;7.110;2023-05-13T04:40:51;0.10;;;0.10;;
34960;SDS011;30789;52.030;7.110;2023-05-13T04:43:17;0.00;;;0.00;;
34960;SDS011;30789;52.030;7.110;2023-05-13T04:45:45;0.10;;;0.10;;
34960;SDS011;30789;52.030;7.110;2023-05-13T04:48:13;0.20;;;0.20;;
34960;SDS011;30789;52.030;7.110;2023-05-13T04:50:43;0.05;;;0.05;;
34960;SDS011;30789;52.030;7.110;2023-05-13T04:53:11;0.03;;;0.03;;
34960;SDS011;30789;52.030;7.110;2023-05-13T04:55:37;0.05;;;0.05;;
34960;SDS011;30789;52.030;7.110;2023-05-13T04:58:04;0.00;;;0.00;;
34960;SDS011;30789;52.030;7.110;2023-05-13T05:00:31;0.90;;;0.80;;
34960;SDS011;30789;52.030;7.110;2023-05-13T05:02:57;0.00;;;0.00;;
34960;SDS011;30789;52.030;7.110;2023-05-13T05:05:25;0.32;;;0.32;;
34960;SDS011;30789;52.030;7.110;2023-05-13T05:07:51;0.20;;;0.20;;
34960;SDS011;30789;52.030;7.110;2023-05-13T05:10:18;0.85;;;0.85;;
34960;SDS011;30789;52.030;7.110;2023-05-13T05:12:44;0.00;;;0.00;;
34960;SDS011;30789;52.030;7.110;2023-05-13T05:15:11;0.30;;;0.30;;
34960;SDS011;30789;52.030;7.110;2023-05-13T05:17:40;0.00;;;0.00;;
34960;SDS011;30789;52.030;7.110;2023-05-13T05:20:07;0.00;;;0.00;;
34960;SDS011;30789;52.030;7.110;2023-05-13T05:22:35;0.10;;;0.10;;
34960;SDS011;30789;52.030;7.110;2023-05-13T05:25:02;0.63;;;0.63;;
34960;SDS011;30789;52.030;7.110;2023-05-13T05:27:29;0.35;;;0.35;;
34960;SDS011;30789;52.030;7.110;2023-05-13T05:29:55;0.10;;;0.10;;
34960;SDS011;30789;52.030;7.110;2023-05-13T05:32:22;1.17;;;0.98;;
34960;SDS011;30789;52.030;7.110;2023-05-13T05:34:48;1.95;;;1.65;;
34960;SDS011;30789;52.030;7.110;2023-05-13T05:37:15;0.03;;;0.03;;
34960;SDS011;30789;52.030;7.110;2023-05-13T05:39:43;0.00;;;0.00;;
34960;SDS011;30789;52.030;7.110;2023-05-13T05:42:10;0.20;;;0.17;;
34960;SDS011;30789;52.030;7.110;2023-05-13T05:44:37;0.00;;;0.00;;
34960;SDS011;30789;52.030;7.110;2023-05-13T05:47:03;0.10;;;0.10;;
34960;SDS011;30789;52.030;7.110;2023-05-13T05:49:31;0.55;;;0.55;;
34960;SDS011;30789;52.030;7.110;2023-05-13T05:51:57;0.10;;;0.10;;
34960;SDS011;30789;52.030;7.110;2023-05-13T05:54:23;0.47;;;0.47;;
34960;SDS011;30789;52.030;7.110;2023-05-13T05:56:51;1.20;;;1.20;;
34960;SDS011;30789;52.030;7.110;2023-05-13T05:59:18;0.10;;;0.10;;
34960;SDS011;30789;52.030;7.110;2023-05-13T06:01:44;0.95;;;0.95;;
34960;SDS011;30789;52.030;7.110;2023-05-13T06:04:10;0.15;;;0.15;;
34960;SDS011;30789;52.030;7.110;2023-05-13T06:06:37;0.00;;;0.00;;
34960;SDS011;30789;52.030;7.110;2023-05-13T06:09:04;0.10;;;0.10;;
34960;SDS011;30789;52.030;7.110;2023-05-13T06:11:30;0.65;;;0.65;;
34960;SDS011;30789;52.030;7.110;2023-05-13T06:13:58;0.17;;;0.17;;
34960;SDS011;30789;52.030;7.110;2023-05-13T06:16:25;1.25;;;0.47;;
34960;SDS011;30789;52.030;7.110;2023-05-13T06:18:51;0.50;;;0.50;;
34960;SDS011;30789;52.030;7.110;2023-05-13T06:21:18;0.05;;;0.05;;
34960;SDS011;30789;52.030;7.110;2023-05-13T06:23:44;0.00;;;0.00;;
34960;SDS011;30789;52.030;7.110;2023-05-13T06:26:10;0.10;;;0.10;;
34960;SDS011;30789;52.030;7.110;2023-05-13T06:28:37;0.90;;;0.90;;
34960;SDS011;30789;52.030;7.110;2023-05-13T06:31:05;0.70;;;0.35;;
34960;SDS011;30789;52.030;7.110;2023-05-13T06:33:31;0.28;;;0.28;;
34960;SDS011;30789;52.030;7.110;2023-05-13T06:35:58;1.08;;;0.70;;
34960;SDS011;30789;52.030;7.110;2023-05-13T06:38:24;0.65;;;0.52;;
34960;SDS011;30789;52.030;7.110;2023-05-13T06:40:51;0.45;;;0.45;;
34960;SDS011;30789;52.030;7.110;2023-05-13T06:43:17;0.22;;;0.22;;
34960;SDS011;30789;52.030;7.110;2023-05-13T06:45:44;0.75;;;0.75;;
34960;SDS011;30789;52.030;7.110;2023-05-13T06:48:11;1.88;;;0.57;;
34960;SDS011;30789;52.030;7.110;2023-05-13T06:50:38;0.88;;;0.82;;
34960;SDS011;30789;52.030;7.110;2023-05-13T06:53:05;1.75;;;1.27;;
34960;SDS011;30789;52.030;7.110;2023-05-13T06:55:32;0.00;;;0.00;;
34960;SDS011;30789;52.030;7.110;2023-05-13T06:58:05;2.05;;;0.60;;
34960;SDS011;30789;52.030;7.110;2023-05-13T07:00:32;0.30;;;0.30;;
34960;SDS011;30789;52.030;7.110;2023-05-13T07:02:58;0.43;;;0.30;;
34960;SDS011;30789;52.030;7.110;2023-05-13T07:05:26;0.60;;;0.60;;
34960;SDS011;30789;52.030;7.110;2023-05-13T07:07:52;0.00;;;0.00;;
34960;SDS011;30789;52.030;7.110;2023-05-13T07:10:19;0.28;;;0.28;;
34960;SDS011;30789;52.030;7.110;2023-05-13T07:12:45;0.00;;;0.00;;
34960;SDS011;30789;52.030;7.110;2023-05-13T07:15:12;1.75;;;1.65;;
34960;SDS011;30789;52.030;7.110;2023-05-13T07:17:38;0.82;;;0.82;;
34960;SDS011;30789;52.030;7.110;2023-05-13T07:20:05;0.03;;;0.03;;
34960;SDS011;30789;52.030;7.110;2023-05-13T07:22:34;0.00;;;0.00;;
34960;SDS011;30789;52.030;7.110;2023-05-13T07:25:01;1.98;;;1.75;;
34960;SDS011;30789;52.030;7.110;2023-05-13T07:27:28;0.32;;;0.30;;
34960;SDS011;30789;52.030;7.110;2023-05-13T07:29:54;0.10;;;0.10;;
34960;SDS011;30789;52.030;7.110;2023-05-13T07:32:21;0.10;;;0.10;;
34960;SDS011;30789;52.030;7.110;2023-05-13T07:34:47;0.03;;;0.03;;
34960;SDS011;30789;52.030;7.110;2023-05-13T07:37:13;0.20;;;0.20;;
34960;SDS011;30789;52.030;7.110;2023-05-13T07:39:41;0.82;;;0.43;;
34960;SDS011;30789;52.030;7.110;2023-05-13T07:42:07;0.30;;;0.25;;
34960;SDS011;30789;52.030;7.110;2023-05-13T07:44:34;0.15;;;0.15;;
34960;SDS011;30789;52.030;7.110;2023-05-13T07:47:00;0.80;;;0.80;;
34960;SDS011;30789;52.030;7.110;2023-05-13T07:49:27;0.35;;;0.35;;
34960;SDS011;30789;52.030;7.110;2023-05-13T07:51:53;2.58;;;0.93;;
34960;SDS011;30789;52.030;7.110;2023-05-13T07:54:20;0.17;;;0.17;;
34960;SDS011;30789;52.030;7.110;2023-05-13T07:56:48;0.30;;;0.30;;
34960;SDS011;30789;52.030;7.110;2023-05-13T07:59:14;14.90;;;0.88;;
34960;SDS011;30789;52.030;7.110;2023-05-13T08:01:41;1.33;;;1.13;;
34960;SDS011;30789;52.030;7.110;2023-05-13T08:04:08;0.20;;;0.20;;
34960;SDS011;30789;52.030;7.110;2023-05-13T08:06:34;0.30;;;0.22;;
34960;SDS011;30789;52.030;7.110;2023-05-13T08:09:01;0.35;;;0.35;;
34960;SDS011;30789;52.030;7.110;2023-05-13T08:11:28;0.35;;;0.30;;
34960;SDS011;30789;52.030;7.110;2023-05-13T08:13:56;0.20;;;0.20;;
34960;SDS011;30789;52.030;7.110;2023-05-13T08:16:22;0.47;;;0.47;;
34960;SDS011;30789;52.030;7.110;2023-05-13T08:18:49;0.05;;;0.05;;
34960;SDS011;30789;52.030;7.110;2023-05-13T08:21:15;0.82;;;0.82;;
34960;SDS011;30789;52.030;7.110;2023-05-13T08:23:42;0.10;;;0.10;;
34960;SDS011;30789;52.030;7.110;2023-05-13T08:26:08;0.43;;;0.43;;
34960;SDS011;30789;52.030;7.110;2023-05-13T08:28:34;0.20;;;0.20;;
34960;SDS011;30789;52.030;7.110;2023-05-13T08:31:03;0.30;;;0.20;;
34960;SDS011;30789;52.030;7.110;2023-05-13T08:33:30;0.38;;;0.38;;
34960;SDS011;30789;52.030;7.110;2023-05-13T08:35:57;0.30;;;0.30;;
34960;SDS011;30789;52.030;7.110;2023-05-13T08:38:25;0.00;;;0.00;;
34960;SDS011;30789;52.030;7.110;2023-05-13T08:40:51;0.22;;;0.22;;
34960;SDS011;30789;52.030;7.110;2023-05-13T08:43:18;0.00;;;0.00;;
34960;SDS011;30789;52.030;7.110;2023-05-13T08:45:46;0.10;;;0.10;;
34960;SDS011;30789;52.030;7.110;2023-05-13T08:48:14;1.05;;;1.05;;
34960;SDS011;30789;52.030;7.110;2023-05-13T08:50:41;1.02;;;0.88;;
34960;SDS011;30789;52.030;7.110;2023-05-13T08:53:09;0.30;;;0.30;;
34960;SDS011;30789;52.030;7.110;2023-05-13T08:55:37;0.25;;;0.25;;
34960;SDS011;30789;52.030;7.110;2023-05-13T08:58:04;3.35;;;1.05;;
34960;SDS011;30789;52.030;7.110;2023-05-13T09:00:31;0.00;;;0.00;;
34960;SDS011;30789;52.030;7.110;2023-05-13T09:02:58;2.08;;;0.98;;
34960;SDS011;30789;52.030;7.110;2023-05-13T09:05:26;0.00;;;0.00;;
34960;SDS011;30789;52.030;7.110;2023-05-13T09:07:52;0.28;;;0.28;;
34960;SDS011;30789;52.030;7.110;2023-05-13T09:10:19;0.28;;;0.28;;
34960;SDS011;30789;52.030;7.110;2023-05-13T09:12:47;0.30;;;0.30;;
34960;SDS011;30789;52.030;7.110;2023-05-13T09:15:15;0.00;;;0.00;;
34960;SDS011;30789;52.030;7.110;2023-05-13T09:17:43;0.43;;;0.43;;
34960;SDS011;30789;52.030;7.110;2023-05-13T09:20:10;0.20;;;0.20;;
34960;SDS011;30789;52.030;7.110;2023-05-13T09:22:42;0.00;;;0.00;;
34960;SDS011;30789;52.030;7.110;2023-05-13T09:25:10;0.00;;;0.00;;
34960;SDS011;30789;52.030;7.110;2023-05-13T09:27:38;4.30;;;0.63;;
34960;SDS011;30789;52.030;7.110;2023-05-13T09:30:08;0.80;;;0.80;;
34960;SDS011;30789;52.030;7.110;2023-05-13T09:32:36;0.15;;;0.15;;
34960;SDS011;30789;52.030;7.110;2023-05-13T09:35:09;0.20;;;0.20;;
34960;SDS011;30789;52.030;7.110;2023-05-13T09:37:46;0.65;;;0.43;;
34960;SDS011;30789;52.030;7.110;2023-05-13T09:40:14;0.55;;;0.55;;
34960;SDS011;30789;52.030;7.110;2023-05-13T09:42:41;0.00;;;0.00;;
34960;SDS011;30789;52.030;7.110;2023-05-13T09:45:09;1.65;;;1.55;;
34960;SDS011;30789;52.030;7.110;2023-05-13T09:47:36;0.32;;;0.32;;
34960;SDS011;30789;52.030;7.110;2023-05-13T09:50:03;0.45;;;0.45;;
34960;SDS011;30789;52.030;7.110;2023-05-13T09:52:32;0.20;;;0.20;;
34960;SDS011;30789;52.030;7.110;2023-05-13T09:55:01;0.00;;;0.00;;
34960;SDS011;30789;52.030;7.110;2023-05-13T09:57:29;2.72;;;0.30;;
34960;SDS011;30789;52.030;7.110;2023-05-13T09:59:56;0.63;;;0.32;;
34960;SDS011;30789;52.030;7.110;2023-05-13T10:02:24;0.63;;;0.50;;
34960;SDS011;30789;52.030;7.110;2023-05-13T10:04:51;0.30;;;0.30;;
34960;SDS011;30789;52.030;7.110;2023-05-13T10:07:18;0.50;;;0.38;;
34960;SDS011;30789;52.030;7.110;2023-05-13T10:09:48;0.00;;;0.00;;
34960;SDS011;30789;52.030;7.110;2023-05-13T10:12:20;2.70;;;1.38;;
34960;SDS011;30789;52.030;7.110;2023-05-13T10:14:49;0.00;;;0.00;;
34960;SDS011;30789;52.030;7.110;2023-05-13T10:17:17;3.78;;;1.52;;
34960;SDS011;30789;52.030;7.110;2023-05-13T10:19:45;0.10;;;0.10;;
34960;SDS011;30789;52.030;7.110;2023-05-13T10:22:13;0.22;;;0.22;;
34960;SDS011;30789;52.030;7.110;2023-05-13T10:24:40;0.10;;;0.10;;
34960;SDS011;30789;52.030;7.110;2023-05-13T10:27:07;0.20;;;0.10;;
34960;SDS011;30789;52.030;7.110;2023-05-13T10:29:38;0.63;;;0.63;;
34960;SDS011;30789;52.030;7.110;2023-05-13T10:32:06;0.28;;;0.28;;
34960;SDS011;30789;52.030;7.110;2023-05-13T10:34:33;0.20;;;0.20;;
34960;SDS011;30789;52.030;7.110;2023-05-13T10:37:06;0.10;;;0.10;;
34960;SDS011;30789;52.030;7.110;2023-05-13T10:43:09;0.60;;;0.43;;
34960;SDS011;30789;52.030;7.110;2023-05-13T10:45:39;0.10;;;0.10;;
34960;SDS011;30789;52.030;7.110;2023-05-13T10:48:10;0.80;;;0.35;;
34960;SDS011;30789;52.030;7.110;2023-05-13T10:50:37;0.00;;;0.00;;
34960;SDS011;30789;52.030;7.110;2023-05-13T10:53:07;0.10;;;0.03;;
34960;SDS011;30789;52.030;7.110;2023-05-13T10:55:42;0.52;;;0.47;;
34960;SDS011;30789;52.030;7.110;2023-05-13T10:58:10;0.30;;;0.30;;
34960;SDS011;30789;52.030;7.110;2023-05-13T11:00:38;0.93;;;0.52;;
34960;SDS011;30789;52.030;7.110;2023-05-13T11:03:13;0.28;;;0.28;;
34960;SDS011;30789;52.030;7.110;2023-05-13T11:05:42;0.20;;;0.20;;
34960;SDS011;30789;52.030;7.110;2023-05-13T11:08:11;0.50;;;0.38;;
34960;SDS011;30789;52.030;7.110;2023-05-13T11:10:37;0.00;;;0.00;;
34960;SDS011;30789;52.030;7.110;2023-05-13T11:15:52;0.15;;;0.15;;
34960;SDS011;30789;52.030;7.110;2023-05-13T11:18:19;0.00;;;0.00;;
34960;SDS011;30789;52.030;7.110;2023-05-13T11:20:55;0.13;;;0.13;;
34960;SDS011;30789;52.030;7.110;2023-05-13T11:23:27;0.35;;;0.35;;
34960;SDS011;30789;52.030;7.110;2023-05-13T11:28:51;0.30;;;0.13;;
34960;SDS011;30789;52.030;7.110;2023-05-13T11:31:24;0.65;;;0.55;;
34960;SDS011;30789;52.030;7.110;2023-05-13T11:34:05;0.20;;;0.20;;
34960;SDS011;30789;52.030;7.110;2023-05-13T11:36:33;0.65;;;0.65;;
34960;SDS011;30789;52.030;7.110;2023-05-13T11:39:07;0.43;;;0.43;;
34960;SDS011;30789;52.030;7.110;2023-05-13T11:41:36;0.35;;;0.22;;
34960;SDS011;30789;52.030;7.110;2023-05-13T11:44:03;0.28;;;0.28;;
34960;SDS011;30789;52.030;7.110;2023-05-13T11:46:32;0.13;;;0.13;;
34960;SDS011;30789;52.030;7.110;2023-05-13T11:48:58;0.55;;;0.55;;
34960;SDS011;30789;52.030;7.110;2023-05-13T11:51:25;0.20;;;0.20;;
34960;SDS011;30789;52.030;7.110;2023-05-13T11:53:58;4.20;;;0.43;;
34960;SDS011;30789;52.030;7.110;2023-05-13T11:56:25;0.30;;;0.30;;
34960;SDS011;30789;52.030;7.110;2023-05-13T11:58:52;0.43;;;0.28;;
34960;SDS011;30789;52.030;7.110;2023-05-13T12:01:19;0.30;;;0.30;;
34960;SDS011;30789;52.030;7.110;2023-05-13T12:03:47;1.58;;;1.48;;
34960;SDS011;30789;52.030;7.110;2023-05-13T12:06:14;0.55;;;0.55;;
34960;SDS011;30789;52.030;7.110;2023-05-13T12:08:43;0.05;;;0.05;;
34960;SDS011;30789;52.030;7.110;2023-05-13T12:11:10;0.98;;;0.45;;
34960;SDS011;30789;52.030;7.110;2023-05-13T12:13:38;0.00;;;0.00;;
34960;SDS011;30789;52.030;7.110;2023-05-13T12:16:05;0.65;;;0.63;;
34960;SDS011;30789;52.030;7.110;2023-05-13T12:18:33;1.85;;;1.15;;
34960;SDS011;30789;52.030;7.110;2023-05-13T12:21:13;7.57;;;1.85;;
34960;SDS011;30789;52.030;7.110;2023-05-13T12:23:41;0.60;;;0.20;;
34960;SDS011;30789;52.030;7.110;2023-05-13T12:26:07;0.75;;;0.35;;
34960;SDS011;30789;52.030;7.110;2023-05-13T12:28:34;0.10;;;0.10;;
34960;SDS011;30789;52.030;7.110;2023-05-13T12:31:01;0.68;;;0.68;;
34960;SDS011;30789;52.030;7.110;2023-05-13T12:33:30;0.40;;;0.40;;
34960;SDS011;30789;52.030;7.110;2023-05-13T12:38:55;1.67;;;0.47;;
34960;SDS011;30789;52.030;7.110;2023-05-13T12:41:23;2.30;;;0.55;;
34960;SDS011;30789;52.030;7.110;2023-05-13T12:43:54;1.30;;;0.45;;
34960;SDS011;30789;52.030;7.110;2023-05-13T12:48:50;0.20;;;0.20;;
34960;SDS011;30789;52.030;7.110;2023-05-13T12:51:19;0.08;;;0.08;;
34960;SDS011;30789;52.030;7.110;2023-05-13T12:53:45;0.00;;;0.00;;
34960;SDS011;30789;52.030;7.110;2023-05-13T12:56:12;0.10;;;0.10;;
34960;SDS011;30789;52.030;7.110;2023-05-13T12:58:38;0.15;;;0.15;;
34960;SDS011;30789;52.030;7.110;2023-05-13T13:01:05;0.35;;;0.25;;
34960;SDS011;30789;52.030;7.110;2023-05-13T13:03:32;0.45;;;0.40;;
34960;SDS011;30789;52.030;7.110;2023-05-13T13:05:58;0.00;;;0.00;;
34960;SDS011;30789;52.030;7.110;2023-05-13T13:08:26;0.00;;;0.00;;
34960;SDS011;30789;52.030;7.110;2023-05-13T13:10:53;0.00;;;0.00;;
34960;SDS011;30789;52.030;7.110;2023-05-13T13:13:19;0.22;;;0.22;;
34960;SDS011;30789;52.030;7.110;2023-05-13T13:15:46;0.70;;;0.57;;
34960;SDS011;30789;52.030;7.110;2023-05-13T13:18:12;2.67;;;0.20;;
34960;SDS011;30789;52.030;7.110;2023-05-13T13:20:39;0.88;;;0.88;;
34960;SDS011;30789;52.030;7.110;2023-05-13T13:23:06;0.15;;;0.15;;
34960;SDS011;30789;52.030;7.110;2023-05-13T13:25:35;0.10;;;0.10;;
34960;SDS011;30789;52.030;7.110;2023-05-13T13:28:01;0.10;;;0.10;;
34960;SDS011;30789;52.030;7.110;2023-05-13T13:30:28;0.93;;;0.55;;
34960;SDS011;30789;52.030;7.110;2023-05-13T13:32:55;4.78;;;1.92;;
34960;SDS011;30789;52.030;7.110;2023-05-13T13:35:22;0.00;;;0.00;;
34960;SDS011;30789;52.030;7.110;2023-05-13T13:39:11;0.65;;;0.65;;
34960;SDS011;30789;52.030;7.110;2023-05-13T13:41:37;0.43;;;0.30;;
34960;SDS011;30789;52.030;7.110;2023-05-13T13:44:03;0.65;;;0.65;;
34960;SDS011;30789;52.030;7.110;2023-05-13T13:46:30;0.28;;;0.20;;
34960;SDS011;30789;52.030;7.110;2023-05-13T13:48:56;0.80;;;0.75;;
34960;SDS011;30789;52.030;7.110;2023-05-13T13:51:23;1.65;;;0.52;;
34960;SDS011;30789;52.030;7.110;2023-05-13T13:59:45;5.88;;;2.70;;
34960;SDS011;30789;52.030;7.110;2023-05-13T14:02:12;5.60;;;2.13;;
34960;SDS011;30789;52.030;7.110;2023-05-13T14:04:38;3.55;;;2.35;;
34960;SDS011;30789;52.030;7.110;2023-05-13T14:07:05;3.22;;;2.28;;
34960;SDS011;30789;52.030;7.110;2023-05-13T14:09:32;6.30;;;2.70;;
34960;SDS011;30789;52.030;7.110;2023-05-13T14:11:58;4.50;;;1.92;;
34960;SDS011;30789;52.030;7.110;2023-05-13T14:14:25;3.60;;;1.95;;
34960;SDS011;30789;52.030;7.110;2023-05-13T14:16:53;2.92;;;1.88;;
34960;SDS011;30789;52.030;7.110;2023-05-13T14:19:19;5.05;;;2.33;;
34960;SDS011;30789;52.030;7.110;2023-05-13T14:21:46;4.45;;;2.47;;
34960;SDS011;30789;52.030;7.110;2023-05-13T14:24:12;5.80;;;2.67;;
34960;SDS011;30789;52.030;7.110;2023-05-13T14:26:39;4.75;;;2.10;;
34960;SDS011;30789;52.030;7.110;2023-05-13T14:29:05;3.78;;;2.30;;
34960;SDS011;30789;52.030;7.110;2023-05-13T14:31:31;6.78;;;2.10;;
34960;SDS011;30789;52.030;7.110;2023-05-13T14:34:00;3.13;;;2.25;;
34960;SDS011;30789;52.030;7.110;2023-05-13T14:36:26;2.67;;;2.10;;
34960;SDS011;30789;52.030;7.110;2023-05-13T14:38:53;3.30;;;2.33;;
34960;SDS011;30789;52.030;7.110;2023-05-13T14:41:19;3.95;;;2.22;;
34960;SDS011;30789;52.030;7.110;2023-05-13T14:43:47;4.35;;;2.35;;
34960;SDS011;30789;52.030;7.110;2023-05-13T14:46:14;2.67;;;2.10;;
34960;SDS011;30789;52.030;7.110;2023-05-13T14:48:40;3.47;;;2.10;;
34960;SDS011;30789;52.030;7.110;2023-05-13T14:51:08;3.88;;;2.50;;
34960;SDS011;30789;52.030;7.110;2023-05-13T14:53:36;3.97;;;1.98;;
34960;SDS011;30789;52.030;7.110;2023-05-13T14:56:03;4.10;;;2.40;;
34960;SDS011;30789;52.030;7.110;2023-05-13T14:58:30;2.80;;;2.05;;
34960;SDS011;30789;52.030;7.110;2023-05-13T15:00:56;2.83;;;1.95;;
34960;SDS011;30789;52.030;7.110;2023-05-13T15:03:22;3.53;;;1.75;;
34960;SDS011;30789;52.030;7.110;2023-05-13T15:05:49;3.10;;;2.67;;
34960;SDS011;30789;52.030;7.110;2023-05-13T15:08:17;5.47;;;2.00;;
34960;SDS011;30789;52.030;7.110;2023-05-13T15:10:44;3.33;;;2.53;;